createdAt,value
2023-05-24T00:01:27.273Z,15.43
2023-05-24T00:04:01.269Z,15.38
2023-05-24T00:06:30.510Z,15.37
2023-05-24T00:08:58.112Z,15.35
2023-05-24T00:11:25.380Z,15.33
2023-05-24T00:13:52.691Z,15.29
2023-05-24T00:16:19.778Z,15.29
2023-05-24T00:18:47.188Z,15.27
2023-05-24T00:21:14.762Z,15.22
2023-05-24T00:23:42.214Z,15.19
2023-05-24T00:26:09.372Z,15.18
2023-05-24T00:28:37.116Z,15.16
2023-05-24T00:31:04.241Z,15.15
2023-05-24T00:33:32.170Z,15.14
2023-05-24T00:35:59.030Z,15.16
2023-05-24T00:38:26.915Z,15.19
2023-05-24T00:40:56.487Z,15.22
2023-05-24T00:43:24.067Z,15.25
2023-05-24T00:46:12.791Z,15.27
2023-05-24T00:48:40.901Z,15.28
2023-05-24T00:51:07.691Z,15.29
2023-05-24T00:53:36.921Z,15.32
2023-05-24T00:56:04.629Z,15.33
2023-05-24T00:58:32.374Z,15.28
2023-05-24T01:01:01.555Z,15.25
2023-05-24T01:03:29.692Z,15.22
2023-05-24T01:06:03.823Z,15.15
2023-05-24T01:08:40.091Z,15.11
2023-05-24T01:11:15.472Z,15.04
2023-05-24T01:14:09.180Z,14.95
2023-05-24T01:16:41.560Z,14.84
2023-05-24T01:19:44.829Z,14.81
2023-05-24T01:22:36.584Z,14.81
2023-05-24T01:25:19.436Z,14.77
2023-05-24T01:27:47.609Z,14.76
2023-05-24T01:30:15.664Z,14.84
2023-05-24T01:32:42.807Z,14.85
2023-05-24T01:35:09.838Z,14.85
2023-05-24T01:37:36.681Z,14.82
2023-05-24T01:40:04.496Z,14.82
2023-05-24T01:42:48.955Z,14.83
2023-05-24T01:45:28.894Z,14.78
2023-05-24T01:48:31.830Z,14.72
2023-05-24T01:51:09.519Z,14.68
2023-05-24T02:00:36.367Z,14.65
2023-05-24T02:03:08.008Z,14.64
2023-05-24T02:05:35.930Z,14.63
2023-05-24T02:08:06.074Z,14.63
2023-05-24T02:10:41.713Z,14.60
2023-05-24T02:13:10.633Z,14.58
2023-05-24T02:16:07.231Z,14.58
2023-05-24T02:22:13.873Z,14.54
2023-05-24T02:24:46.137Z,14.48
2023-05-24T02:24:50.225Z,14.56
2023-05-24T02:27:29.259Z,14.48
2023-05-24T02:30:25.659Z,14.45
2023-05-24T02:32:53.082Z,14.50
2023-05-24T02:35:20.597Z,14.54
2023-05-24T02:37:47.493Z,14.59
2023-05-24T02:40:14.325Z,14.58
2023-05-24T02:42:50.705Z,14.57
2023-05-24T02:45:38.094Z,14.52
2023-05-24T02:48:06.656Z,14.49
2023-05-24T02:50:33.802Z,14.47
2023-05-24T02:53:02.194Z,14.45
2023-05-24T02:55:29.311Z,14.40
2023-05-24T02:57:56.688Z,14.38
2023-05-24T03:00:24.866Z,14.32
2023-05-24T03:03:17.390Z,14.28
2023-05-24T03:05:45.208Z,14.24
2023-05-24T03:12:41.012Z,14.25
2023-05-24T03:15:08.672Z,14.28
2023-05-24T03:17:35.648Z,14.31
2023-05-24T03:20:03.098Z,14.29
2023-05-24T03:22:31.635Z,14.24
2023-05-24T03:24:58.477Z,14.25
2023-05-24T03:27:26.315Z,14.25
2023-05-24T03:29:54.422Z,14.20
2023-05-24T03:32:24.554Z,14.19
2023-05-24T03:35:15.066Z,14.11
2023-05-24T03:37:42.604Z,14.06
2023-05-24T03:40:09.738Z,14.01
2023-05-24T03:43:08.325Z,13.97
2023-05-24T03:45:46.998Z,13.99
2023-05-24T03:48:14.045Z,13.96
2023-05-24T03:50:41.070Z,14.01
2023-05-24T03:53:08.119Z,14.06
2023-05-24T03:55:34.972Z,14.07
2023-05-24T03:58:02.002Z,14.07
2023-05-24T04:00:28.900Z,14.07
2023-05-24T04:02:56.442Z,14.10
2023-05-24T04:05:27.353Z,14.12
2023-05-24T04:07:54.382Z,14.14
2023-05-24T04:10:21.443Z,14.10
2023-05-24T04:12:49.111Z,14.08
2023-05-24T04:15:15.897Z,14.08
2023-05-24T04:17:44.370Z,14.09
2023-05-24T04:20:13.757Z,14.08
2023-05-24T04:22:41.023Z,14.07
2023-05-24T04:25:10.064Z,14.07
2023-05-24T04:27:37.418Z,14.02
2023-05-24T04:30:05.980Z,13.98
2023-05-24T04:32:33.037Z,13.91
2023-05-24T04:35:02.707Z,13.79
2023-05-24T04:37:29.671Z,13.71
2023-05-24T04:39:56.717Z,13.63
2023-05-24T04:42:23.566Z,13.55
2023-05-24T04:44:50.357Z,13.47
2023-05-24T04:47:17.604Z,13.42
2023-05-24T04:49:44.604Z,13.35
2023-05-24T04:52:11.723Z,13.34
2023-05-24T04:54:38.691Z,13.34
2023-05-24T04:57:05.881Z,13.34
2023-05-24T04:59:32.876Z,13.36
2023-05-24T05:01:59.754Z,13.43
2023-05-24T05:04:26.523Z,13.56
2023-05-24T05:06:53.602Z,13.67
2023-05-24T05:09:21.259Z,13.74
2023-05-24T05:11:48.557Z,13.78
2023-05-24T05:14:15.364Z,13.74
2023-05-24T05:16:42.880Z,13.67
2023-05-24T05:19:09.808Z,13.64
2023-05-24T05:21:36.837Z,13.64
2023-05-24T05:24:04.143Z,13.70
2023-05-24T05:26:31.519Z,13.78
2023-05-24T05:28:58.408Z,13.89
2023-05-24T05:31:26.608Z,13.92
2023-05-24T05:33:53.535Z,13.94
2023-05-24T05:36:21.184Z,13.90
2023-05-24T05:38:47.905Z,13.85
2023-05-24T05:41:14.748Z,13.79
2023-05-24T05:43:41.597Z,13.77
2023-05-24T05:46:08.691Z,13.79
2023-05-24T05:48:35.744Z,13.80
2023-05-24T05:51:02.590Z,13.83
2023-05-24T05:53:29.680Z,13.92
2023-05-24T05:55:56.622Z,14.01
2023-05-24T05:58:23.461Z,14.13
2023-05-24T06:00:50.434Z,14.26
2023-05-24T06:03:17.516Z,14.42
2023-05-24T06:05:44.580Z,14.66
2023-05-24T06:08:11.559Z,14.67
2023-05-24T06:10:38.379Z,14.66
2023-05-24T06:13:05.337Z,14.66
2023-05-24T06:15:34.448Z,14.82
2023-05-24T06:18:04.251Z,14.75
2023-05-24T06:20:31.545Z,14.68
2023-05-24T06:22:59.074Z,14.63
2023-05-24T06:25:27.636Z,14.60
2023-05-24T06:27:54.468Z,14.58
2023-05-24T06:30:21.342Z,14.58
2023-05-24T06:32:48.406Z,14.64
2023-05-24T06:35:16.313Z,14.67
2023-05-24T06:37:43.870Z,14.76
2023-05-24T06:40:13.098Z,14.81
2023-05-24T06:42:41.451Z,14.74
2023-05-24T06:45:09.477Z,14.68
2023-05-24T06:47:37.130Z,14.66
2023-05-24T06:50:05.017Z,14.66
2023-05-24T06:52:31.927Z,14.79
2023-05-24T06:54:58.834Z,15.01
2023-05-24T06:57:27.137Z,15.02
2023-05-24T06:59:54.028Z,14.99
2023-05-24T07:02:26.676Z,15.00
2023-05-24T07:04:53.968Z,15.06
2023-05-24T07:10:36.691Z,14.98
2023-05-24T07:13:04.101Z,14.98
2023-05-24T07:15:31.210Z,14.99
2023-05-24T07:17:59.331Z,15.15
2023-05-24T07:20:26.619Z,15.65
2023-05-24T07:22:54.113Z,15.84
2023-05-24T07:25:21.501Z,15.69
2023-05-24T07:27:48.371Z,15.71
2023-05-24T07:30:27.813Z,15.82
2023-05-24T07:32:58.605Z,16.50
2023-05-24T07:35:25.595Z,17.07
2023-05-24T07:37:52.899Z,17.61
2023-05-24T07:40:20.515Z,17.82
2023-05-24T07:42:47.734Z,17.90
2023-05-24T07:45:16.607Z,18.15
2023-05-24T07:47:43.502Z,18.11
2023-05-24T07:50:11.746Z,18.10
2023-05-24T07:52:41.239Z,17.93
2023-05-24T07:55:08.452Z,17.60
2023-05-24T07:57:35.262Z,17.35
2023-05-24T08:00:10.307Z,17.28
2023-05-24T08:02:38.559Z,17.41
2023-05-24T08:05:05.833Z,17.82
2023-05-24T08:07:32.620Z,17.99
2023-05-24T08:09:59.627Z,18.54
2023-05-24T08:12:26.550Z,19.22
2023-05-24T08:14:53.351Z,21.86
2023-05-24T08:17:20.280Z,25.37
2023-05-24T08:19:47.282Z,29.08
2023-05-24T08:22:14.750Z,32.18
2023-05-24T08:24:41.845Z,34.50
2023-05-24T08:27:09.008Z,36.00
2023-05-24T08:29:38.037Z,37.08
2023-05-24T08:32:09.466Z,38.30
2023-05-24T08:34:37.581Z,39.72
2023-05-24T08:37:09.341Z,40.68
2023-05-24T08:39:36.252Z,40.94
2023-05-24T08:42:09.750Z,41.41
2023-05-24T08:44:53.565Z,41.88
2023-05-24T08:47:24.256Z,42.14
2023-05-24T08:49:52.677Z,42.34
2023-05-24T08:52:21.446Z,43.06
2023-05-24T08:54:49.354Z,42.73
2023-05-24T08:57:17.912Z,42.70
2023-05-24T08:59:45.023Z,43.10
2023-05-24T09:02:14.929Z,43.81
2023-05-24T09:04:44.398Z,44.11
2023-05-24T09:07:14.007Z,44.31
2023-05-24T09:09:48.017Z,44.27
2023-05-24T09:12:28.367Z,44.84
2023-05-24T09:15:03.842Z,45.81
2023-05-24T09:17:37.875Z,46.53
2023-05-24T09:20:09.158Z,46.77
2023-05-24T09:22:41.177Z,46.75
2023-05-24T09:25:10.981Z,46.96
2023-05-24T09:27:38.540Z,47.41
2023-05-24T09:30:12.925Z,47.67
2023-05-24T09:32:40.325Z,47.55
2023-05-24T09:35:09.728Z,47.18
2023-05-24T09:37:38.734Z,46.18
2023-05-24T09:40:07.206Z,46.56
2023-05-24T09:42:34.079Z,47.28
2023-05-24T09:45:12.771Z,47.77
2023-05-24T09:47:41.374Z,48.37
2023-05-24T09:50:16.938Z,49.70
2023-05-24T09:52:43.805Z,48.88
2023-05-24T09:55:18.944Z,47.41
2023-05-24T09:58:05.836Z,43.42
2023-05-24T10:00:40.162Z,38.74
2023-05-24T10:03:09.165Z,35.40
2023-05-24T10:05:37.220Z,32.82
2023-05-24T10:08:09.017Z,31.19
2023-05-24T10:10:37.187Z,30.68
2023-05-24T10:13:04.868Z,31.30
2023-05-24T10:15:31.748Z,34.37
2023-05-24T10:18:00.691Z,39.12
2023-05-24T10:20:28.546Z,42.35
2023-05-24T10:23:01.879Z,44.49
2023-05-24T10:25:30.038Z,46.01
2023-05-24T10:28:08.972Z,46.79
2023-05-24T10:30:38.777Z,48.10
2023-05-24T10:33:08.774Z,49.16
2023-05-24T10:35:38.357Z,49.86
2023-05-24T10:38:08.852Z,50.60
2023-05-24T10:40:41.032Z,51.06
2023-05-24T10:43:08.643Z,51.60
2023-05-24T10:45:40.967Z,52.19
2023-05-24T10:48:31.633Z,52.78
2023-05-24T10:51:01.523Z,53.41
2023-05-24T10:53:29.794Z,54.16
2023-05-24T10:56:04.032Z,54.59
2023-05-24T10:58:56.437Z,55.46
2023-05-24T11:01:32.357Z,55.60
2023-05-24T11:04:07.073Z,55.61
2023-05-24T11:06:56.168Z,55.33
2023-05-24T11:09:24.171Z,54.13
2023-05-24T11:11:59.252Z,54.28
2023-05-24T11:14:35.234Z,54.10
2023-05-24T11:17:08.629Z,53.99
2023-05-24T11:19:38.122Z,53.01
2023-05-24T11:22:09.121Z,52.04
2023-05-24T11:24:37.171Z,51.70
2023-05-24T11:27:04.817Z,51.45
2023-05-24T11:29:32.502Z,51.15
2023-05-24T11:32:08.150Z,51.07
2023-05-24T11:37:34.862Z,50.56
2023-05-24T11:37:45.198Z,50.17
2023-05-24T11:40:22.017Z,49.55
2023-05-24T11:43:09.086Z,49.25
2023-05-24T11:45:36.799Z,49.31
2023-05-24T11:48:11.628Z,49.20
2023-05-24T11:50:50.711Z,48.99
2023-05-24T11:53:24.271Z,49.09
2023-05-24T11:56:38.411Z,48.93
2023-05-24T11:59:19.530Z,48.44
2023-05-24T12:01:46.496Z,47.94
2023-05-24T12:04:13.908Z,47.40
2023-05-24T12:06:43.386Z,44.62
2023-05-24T12:09:20.418Z,39.59
2023-05-24T12:11:51.519Z,35.72
2023-05-24T12:14:20.879Z,33.05
2023-05-24T12:16:57.563Z,31.40
2023-05-24T12:19:46.386Z,30.43
2023-05-24T12:22:17.520Z,29.54
2023-05-24T12:24:44.545Z,28.57
2023-05-24T12:27:13.908Z,27.73
2023-05-24T12:29:42.912Z,27.40
2023-05-24T12:32:15.128Z,27.11
2023-05-24T12:34:43.796Z,26.87
2023-05-24T12:37:15.303Z,26.63
2023-05-24T12:39:44.001Z,26.51
2023-05-24T12:42:16.153Z,26.24
2023-05-24T12:44:44.975Z,25.84
2023-05-24T12:47:12.313Z,25.52
2023-05-24T12:49:39.453Z,25.30
2023-05-24T12:52:07.042Z,25.37
2023-05-24T12:54:36.588Z,25.29
2023-05-24T12:57:03.834Z,25.15
2023-05-24T12:59:34.012Z,25.07
2023-05-24T13:02:13.847Z,24.92
2023-05-24T13:04:40.912Z,24.77
2023-05-24T13:07:11.332Z,24.71
2023-05-24T13:09:38.335Z,24.63
2023-05-24T13:12:06.225Z,24.61
2023-05-24T13:14:36.908Z,24.51
2023-05-24T13:17:04.194Z,24.28
2023-05-24T13:19:31.851Z,24.15
2023-05-24T13:22:01.064Z,24.03
2023-05-24T13:24:28.257Z,24.05
2023-05-24T13:26:58.353Z,24.06
2023-05-24T13:31:56.729Z,24.06
2023-05-24T13:34:25.965Z,24.06
2023-05-24T13:37:36.188Z,23.89
2023-05-24T13:40:20.831Z,23.93
2023-05-24T13:42:48.546Z,23.97
2023-05-24T13:45:29.620Z,23.87
2023-05-24T14:02:41.805Z,23.63
2023-05-24T14:05:25.586Z,23.76
2023-05-24T14:08:08.209Z,23.96
2023-05-24T14:10:37.116Z,23.86
2023-05-24T14:18:50.697Z,23.54
2023-05-24T14:21:27.581Z,23.83
2023-05-24T14:24:01.155Z,24.25
2023-05-24T14:26:28.860Z,24.59
2023-05-24T14:28:56.932Z,24.72
2023-05-24T14:31:24.686Z,25.05
2023-05-24T14:33:52.200Z,25.31
2023-05-24T14:36:19.366Z,25.42
2023-05-24T14:38:47.871Z,25.17
2023-05-24T14:41:16.434Z,24.78
2023-05-24T14:43:47.533Z,24.52
2023-05-24T14:46:14.934Z,24.64
2023-05-24T14:48:43.575Z,24.71
2023-05-24T14:51:10.970Z,24.84
2023-05-24T14:53:38.180Z,24.76
2023-05-24T14:56:08.709Z,24.38
2023-05-24T14:58:36.314Z,24.11
2023-05-24T15:01:03.496Z,23.59
2023-05-24T15:03:31.208Z,23.09
2023-05-24T15:05:59.024Z,22.96
2023-05-24T15:08:28.306Z,23.14
2023-05-24T15:10:58.716Z,22.96
2023-05-24T15:13:26.557Z,23.00
2023-05-24T15:15:56.735Z,23.05
2023-05-24T15:18:25.692Z,22.83
2023-05-24T15:20:54.391Z,22.90
2023-05-24T15:23:21.830Z,22.95
2023-05-24T15:25:49.579Z,22.88
2023-05-24T15:28:18.489Z,23.04
2023-05-24T15:30:47.577Z,23.27
2023-05-24T15:33:18.202Z,23.57
2023-05-24T15:35:56.022Z,23.80
2023-05-24T15:38:27.193Z,23.96
2023-05-24T15:40:55.272Z,24.17
2023-05-24T15:43:23.755Z,24.10
2023-05-24T15:45:51.364Z,24.06
2023-05-24T15:48:21.230Z,23.87
2023-05-24T15:51:22.589Z,23.40
2023-05-24T15:53:43.368Z,22.81
2023-05-24T15:56:10.923Z,22.70
2023-05-24T15:58:38.574Z,22.70
2023-05-24T16:01:53.848Z,22.45
2023-05-24T16:04:30.556Z,22.39
2023-05-24T16:07:29.217Z,22.62
2023-05-24T16:09:58.212Z,22.64
2023-05-24T16:12:30.157Z,22.63
2023-05-24T16:15:11.472Z,22.59
2023-05-24T16:18:09.890Z,22.34
2023-05-24T16:20:49.009Z,22.46
2023-05-24T16:23:44.775Z,22.63
2023-05-24T16:26:12.552Z,22.55
2023-05-24T16:28:39.839Z,22.55
2023-05-24T16:31:06.920Z,22.66
2023-05-24T16:33:33.915Z,22.63
2023-05-24T16:36:03.426Z,22.39
2023-05-24T16:38:33.545Z,22.28
2023-05-24T16:41:00.895Z,22.28
2023-05-24T16:43:27.731Z,22.28
2023-05-24T16:45:56.873Z,22.21
2023-05-24T16:48:28.717Z,22.21
2023-05-24T16:50:56.872Z,22.05
2023-05-24T16:53:26.149Z,22.05
2023-05-24T16:55:54.859Z,22.00
2023-05-24T16:58:28.272Z,21.95
2023-05-24T17:00:56.348Z,21.85
2023-05-24T17:03:30.121Z,21.74
2023-05-24T17:06:03.277Z,21.71
2023-05-24T17:08:38.358Z,21.76
2023-05-24T17:11:09.048Z,21.80
2023-05-24T17:13:38.701Z,21.75
2023-05-24T17:16:11.983Z,21.56
2023-05-24T17:18:39.008Z,21.33
2023-05-24T17:21:07.374Z,21.09
2023-05-24T17:23:37.457Z,20.96
2023-05-24T17:26:05.834Z,20.82
2023-05-24T17:28:34.817Z,20.81
2023-05-24T17:31:02.499Z,20.79
2023-05-24T17:33:31.513Z,20.76
2023-05-24T17:36:02.794Z,20.70
2023-05-24T17:38:33.397Z,20.74
2023-05-24T17:41:00.781Z,20.73
2023-05-24T17:43:32.927Z,20.58
2023-05-24T17:46:08.395Z,20.44
2023-05-24T17:48:37.837Z,20.38
2023-05-24T17:51:11.727Z,20.27
2023-05-24T17:53:41.135Z,20.23
2023-05-24T17:56:11.047Z,20.22
2023-05-24T17:58:40.450Z,20.22
2023-05-24T18:01:11.376Z,20.21
2023-05-24T18:03:40.927Z,20.17
2023-05-24T18:06:08.360Z,20.08
2023-05-24T18:08:43.245Z,19.97
2023-05-24T18:11:12.888Z,19.93
2023-05-24T18:13:42.281Z,19.94
2023-05-24T18:16:12.616Z,19.89
2023-05-24T18:18:40.912Z,19.87
2023-05-24T18:21:09.613Z,19.87
2023-05-24T18:23:40.034Z,19.86
2023-05-24T18:26:08.440Z,19.78
2023-05-24T18:28:41.427Z,19.63
2023-05-24T18:31:12.386Z,19.53
2023-05-24T18:33:39.949Z,19.48
2023-05-24T18:36:07.431Z,19.47
2023-05-24T18:38:35.150Z,19.43
2023-05-24T18:41:10.083Z,19.33
2023-05-24T18:43:37.405Z,19.32
2023-05-24T18:46:04.275Z,19.33
2023-05-24T18:48:31.112Z,19.29
2023-05-24T18:50:58.079Z,19.25
2023-05-24T18:53:28.482Z,19.24
2023-05-24T18:55:55.385Z,19.22
2023-05-24T18:58:22.213Z,19.16
2023-05-24T19:00:50.772Z,19.17
2023-05-24T19:03:17.730Z,19.22
2023-05-24T19:05:46.132Z,19.20
2023-05-24T19:08:13.165Z,19.16
2023-05-24T19:10:40.062Z,19.12
2023-05-24T19:13:07.180Z,18.99
2023-05-24T19:15:35.764Z,18.95
2023-05-24T19:18:03.373Z,18.86
2023-05-24T19:20:30.232Z,18.79
2023-05-24T19:22:57.230Z,18.79
2023-05-24T19:25:23.885Z,18.77
2023-05-24T19:30:21.133Z,18.65
2023-05-24T19:32:48.196Z,18.56
2023-05-24T19:35:15.894Z,18.55
2023-05-24T19:37:42.651Z,18.56
2023-05-24T19:40:10.085Z,18.61
2023-05-24T19:42:36.983Z,18.64
2023-05-24T19:45:05.504Z,18.63
2023-05-24T19:47:32.582Z,18.58
2023-05-24T19:49:59.571Z,18.52
2023-05-24T19:52:26.334Z,18.50
2023-05-24T19:54:53.230Z,18.50
2023-05-24T19:57:20.009Z,18.49
2023-05-24T19:59:46.924Z,18.52
2023-05-24T20:02:14.376Z,18.55
2023-05-24T20:04:42.063Z,18.52
2023-05-24T20:07:09.099Z,18.50
2023-05-24T20:09:36.699Z,18.44
2023-05-24T20:12:04.615Z,18.40
2023-05-24T20:14:34.992Z,18.42
2023-05-24T20:17:02.268Z,18.43
2023-05-24T20:19:29.364Z,18.38
2023-05-24T20:21:56.477Z,18.31
2023-05-24T20:24:23.321Z,18.24
2023-05-24T20:26:50.310Z,18.24
2023-05-24T20:29:17.988Z,18.23
2023-05-24T20:31:44.969Z,18.18
2023-05-24T20:34:12.473Z,18.10
2023-05-24T20:36:43.395Z,17.97
2023-05-24T20:39:10.636Z,17.95
2023-05-24T20:41:37.617Z,17.99
2023-05-24T20:44:04.535Z,18.03
2023-05-24T20:46:31.796Z,18.03
2023-05-24T20:48:58.933Z,18.04
2023-05-24T20:51:28.546Z,18.03
2023-05-24T20:53:55.984Z,18.00
2023-05-24T20:56:24.658Z,17.98
2023-05-24T20:58:53.485Z,17.97
2023-05-24T21:01:20.960Z,17.97
2023-05-24T21:03:48.041Z,17.93
2023-05-24T21:06:15.172Z,17.90
2023-05-24T21:08:42.846Z,17.92
2023-05-24T21:11:09.622Z,17.92
2023-05-24T21:13:36.623Z,17.92
2023-05-24T21:16:03.748Z,17.88
2023-05-24T21:18:30.595Z,17.84
2023-05-24T21:20:57.794Z,17.84
2023-05-24T21:23:24.893Z,17.84
2023-05-24T21:25:51.769Z,17.82
2023-05-24T21:28:18.541Z,17.79
2023-05-24T21:30:45.450Z,17.77
2023-05-24T21:33:15.871Z,17.74
2023-05-24T21:36:56.322Z,17.72
2023-05-24T21:48:05.742Z,17.22
2023-05-24T21:50:58.228Z,17.12
2023-05-24T21:54:18.702Z,17.06
2023-05-24T21:57:02.437Z,16.98
2023-05-24T21:59:35.460Z,16.91
2023-05-24T22:02:02.417Z,16.81
2023-05-24T22:04:32.294Z,16.75
2023-05-24T22:06:59.112Z,16.68
2023-05-24T22:09:25.876Z,16.65
2023-05-24T22:11:52.712Z,16.60
2023-05-24T22:14:19.543Z,16.51
2023-05-24T22:16:46.890Z,16.41
2023-05-24T22:19:16.784Z,16.33
2023-05-24T22:21:50.357Z,16.21
2023-05-24T22:24:17.348Z,16.11
2023-05-24T22:26:46.929Z,16.03
2023-05-24T22:29:16.640Z,15.90
2023-05-24T22:31:43.710Z,15.81
2023-05-24T22:34:11.683Z,15.79
2023-05-24T22:36:39.040Z,15.73
2023-05-24T22:39:06.264Z,15.61
2023-05-24T22:41:33.077Z,15.56
2023-05-24T22:43:59.936Z,15.53
2023-05-24T22:46:26.900Z,15.46
2023-05-24T22:48:53.918Z,15.46
2023-05-24T22:51:20.666Z,15.43
2023-05-24T22:53:49.176Z,15.39
2023-05-24T22:56:16.427Z,15.34
2023-05-24T22:58:43.226Z,15.31
2023-05-24T23:01:09.975Z,15.28
2023-05-24T23:03:36.814Z,15.23
2023-05-24T23:06:04.608Z,15.16
2023-05-24T23:08:34.527Z,15.12
2023-05-24T23:11:01.439Z,15.04
2023-05-24T23:13:33.248Z,14.97
2023-05-24T23:16:00.721Z,14.94
2023-05-24T23:18:28.906Z,14.92
2023-05-24T23:20:56.197Z,14.90
2023-05-24T23:23:25.030Z,14.86
2023-05-24T23:25:52.054Z,14.84
2023-05-24T23:28:19.640Z,14.80
2023-05-24T23:30:46.746Z,14.79
2023-05-24T23:33:13.710Z,14.77
2023-05-24T23:35:40.810Z,14.71
2023-05-24T23:38:07.731Z,14.65
2023-05-24T23:40:36.530Z,14.65
2023-05-24T23:43:04.212Z,14.61
2023-05-24T23:45:31.376Z,14.55
2023-05-24T23:47:59.099Z,14.52
2023-05-24T23:50:27.502Z,14.48
2023-05-24T23:52:55.128Z,14.46
2023-05-24T23:55:23.862Z,14.45
2023-05-24T23:57:52.148Z,14.45
